sensor_id;sensor_type;location;lat;lon;timestamp;P1;durP1;ratioP1;P2;durP2;ratioP2
57985;SDS011;43788;42.670;23.330;2023-07-31T00:00:56;0.30;;;0.30;;
57985;SDS011;43788;42.670;23.330;2023-07-31T00:03:21;0.30;;;0.30;;
57985;SDS011;43788;42.670;23.330;2023-07-31T00:05:47;0.30;;;0.30;;
57985;SDS011;43788;42.670;23.330;2023-07-31T00:08:12;0.45;;;0.30;;
57985;SDS011;43788;42.670;23.330;2023-07-31T00:10:38;0.20;;;0.20;;
57985;SDS011;43788;42.670;23.330;2023-07-31T00:13:03;0.40;;;0.40;;
57985;SDS011;43788;42.670;23.330;2023-07-31T00:15:28;0.50;;;0.50;;
57985;SDS011;43788;42.670;23.330;2023-07-31T00:17:54;0.43;;;0.43;;
57985;SDS011;43788;42.670;23.330;2023-07-31T00:20:19;0.30;;;0.30;;
57985;SDS011;43788;42.670;23.330;2023-07-31T00:22:45;0.52;;;0.50;;
57985;SDS011;43788;42.670;23.330;2023-07-31T00:25:10;0.32;;;0.32;;
57985;SDS011;43788;42.670;23.330;2023-07-31T00:27:36;0.30;;;0.30;;
57985;SDS011;43788;42.670;23.330;2023-07-31T00:30:01;0.40;;;0.40;;
57985;SDS011;43788;42.670;23.330;2023-07-31T00:32:27;0.35;;;0.35;;
57985;SDS011;43788;42.670;23.330;2023-07-31T00:34:52;0.30;;;0.30;;
57985;SDS011;43788;42.670;23.330;2023-07-31T00:37:19;0.40;;;0.40;;
57985;SDS011;43788;42.670;23.330;2023-07-31T00:39:44;0.40;;;0.40;;
57985;SDS011;43788;42.670;23.330;2023-07-31T00:42:10;0.47;;;0.38;;
57985;SDS011;43788;42.670;23.330;2023-07-31T00:44:35;0.40;;;0.40;;
57985;SDS011;43788;42.670;23.330;2023-07-31T00:47:00;0.50;;;0.40;;
57985;SDS011;43788;42.670;23.330;2023-07-31T00:49:26;0.40;;;0.40;;
57985;SDS011;43788;42.670;23.330;2023-07-31T00:51:52;0.50;;;0.50;;
57985;SDS011;43788;42.670;23.330;2023-07-31T00:54:18;0.57;;;0.57;;
57985;SDS011;43788;42.670;23.330;2023-07-31T00:56:45;0.60;;;0.60;;
57985;SDS011;43788;42.670;23.330;2023-07-31T00:59:11;0.65;;;0.50;;
57985;SDS011;43788;42.670;23.330;2023-07-31T01:01:36;0.82;;;0.50;;
57985;SDS011;43788;42.670;23.330;2023-07-31T01:04:02;0.60;;;0.60;;
57985;SDS011;43788;42.670;23.330;2023-07-31T01:09:43;0.70;;;0.70;;
57985;SDS011;43788;42.670;23.330;2023-07-31T01:14:34;0.65;;;0.65;;
57985;SDS011;43788;42.670;23.330;2023-07-31T01:17:00;0.63;;;0.63;;
57985;SDS011;43788;42.670;23.330;2023-07-31T01:19:26;1.40;;;0.95;;
57985;SDS011;43788;42.670;23.330;2023-07-31T01:25:12;0.85;;;0.85;;
57985;SDS011;43788;42.670;23.330;2023-07-31T01:27:47;0.90;;;0.90;;
57985;SDS011;43788;42.670;23.330;2023-07-31T01:30:21;1.38;;;1.27;;
57985;SDS011;43788;42.670;23.330;2023-07-31T01:32:48;1.15;;;1.05;;
57985;SDS011;43788;42.670;23.330;2023-07-31T01:35:13;1.30;;;1.20;;
57985;SDS011;43788;42.670;23.330;2023-07-31T01:37:39;1.20;;;1.20;;
57985;SDS011;43788;42.670;23.330;2023-07-31T01:40:05;1.20;;;1.20;;
57985;SDS011;43788;42.670;23.330;2023-07-31T01:42:31;1.45;;;1.40;;
57985;SDS011;43788;42.670;23.330;2023-07-31T01:44:57;1.75;;;1.63;;
57985;SDS011;43788;42.670;23.330;2023-07-31T01:47:22;1.45;;;1.35;;
57985;SDS011;43788;42.670;23.330;2023-07-31T01:49:48;1.80;;;1.70;;
57985;SDS011;43788;42.670;23.330;2023-07-31T01:52:14;1.90;;;1.80;;
57985;SDS011;43788;42.670;23.330;2023-07-31T01:54:39;1.70;;;1.60;;
57985;SDS011;43788;42.670;23.330;2023-07-31T01:57:05;1.85;;;1.75;;
57985;SDS011;43788;42.670;23.330;2023-07-31T01:59:31;1.77;;;1.67;;
57985;SDS011;43788;42.670;23.330;2023-07-31T02:01:56;1.83;;;1.73;;
57985;SDS011;43788;42.670;23.330;2023-07-31T02:04:22;2.13;;;2.00;;
57985;SDS011;43788;42.670;23.330;2023-07-31T02:06:47;2.17;;;2.03;;
57985;SDS011;43788;42.670;23.330;2023-07-31T02:09:13;2.10;;;2.00;;
57985;SDS011;43788;42.670;23.330;2023-07-31T02:11:38;2.75;;;2.55;;
57985;SDS011;43788;42.670;23.330;2023-07-31T02:14:04;2.10;;;2.00;;
57985;SDS011;43788;42.670;23.330;2023-07-31T02:16:29;2.28;;;2.17;;
57985;SDS011;43788;42.670;23.330;2023-07-31T02:18:54;1.95;;;1.85;;
57985;SDS011;43788;42.670;23.330;2023-07-31T02:21:20;1.92;;;1.83;;
57985;SDS011;43788;42.670;23.330;2023-07-31T02:23:45;2.10;;;1.95;;
57985;SDS011;43788;42.670;23.330;2023-07-31T02:26:11;2.20;;;2.10;;
57985;SDS011;43788;42.670;23.330;2023-07-31T02:28:36;1.83;;;1.73;;
57985;SDS011;43788;42.670;23.330;2023-07-31T02:31:02;2.10;;;1.90;;
57985;SDS011;43788;42.670;23.330;2023-07-31T02:33:27;2.13;;;2.03;;
57985;SDS011;43788;42.670;23.330;2023-07-31T02:35:53;2.10;;;2.00;;
57985;SDS011;43788;42.670;23.330;2023-07-31T02:38:18;2.60;;;2.42;;
57985;SDS011;43788;42.670;23.330;2023-07-31T02:40:44;2.42;;;2.22;;
57985;SDS011;43788;42.670;23.330;2023-07-31T02:43:10;2.20;;;2.10;;
57985;SDS011;43788;42.670;23.330;2023-07-31T02:45:36;2.20;;;2.10;;
57985;SDS011;43788;42.670;23.330;2023-07-31T02:48:01;2.20;;;2.10;;
57985;SDS011;43788;42.670;23.330;2023-07-31T02:50:27;2.20;;;2.10;;
57985;SDS011;43788;42.670;23.330;2023-07-31T02:52:53;2.20;;;2.10;;
57985;SDS011;43788;42.670;23.330;2023-07-31T02:55:19;2.13;;;2.03;;
57985;SDS011;43788;42.670;23.330;2023-07-31T02:57:44;2.22;;;2.10;;
57985;SDS011;43788;42.670;23.330;2023-07-31T03:00:10;2.20;;;2.10;;
57985;SDS011;43788;42.670;23.330;2023-07-31T03:02:35;2.03;;;1.90;;
57985;SDS011;43788;42.670;23.330;2023-07-31T03:05:01;2.15;;;1.95;;
57985;SDS011;43788;42.670;23.330;2023-07-31T03:07:26;1.80;;;1.70;;
57985;SDS011;43788;42.670;23.330;2023-07-31T03:09:52;2.40;;;2.20;;
57985;SDS011;43788;42.670;23.330;2023-07-31T03:12:17;2.03;;;1.92;;
57985;SDS011;43788;42.670;23.330;2023-07-31T03:14:44;2.63;;;2.42;;
57985;SDS011;43788;42.670;23.330;2023-07-31T03:17:10;1.95;;;1.85;;
57985;SDS011;43788;42.670;23.330;2023-07-31T03:19:35;2.40;;;2.20;;
57985;SDS011;43788;42.670;23.330;2023-07-31T03:22:00;2.53;;;2.33;;
57985;SDS011;43788;42.670;23.330;2023-07-31T03:24:26;2.25;;;2.13;;
57985;SDS011;43788;42.670;23.330;2023-07-31T03:26:51;2.20;;;2.00;;
57985;SDS011;43788;42.670;23.330;2023-07-31T03:29:17;2.13;;;2.03;;
57985;SDS011;43788;42.670;23.330;2023-07-31T03:31:42;3.20;;;2.22;;
57985;SDS011;43788;42.670;23.330;2023-07-31T03:34:09;2.35;;;2.25;;
57985;SDS011;43788;42.670;23.330;2023-07-31T03:36:34;2.65;;;2.45;;
57985;SDS011;43788;42.670;23.330;2023-07-31T03:39:00;2.97;;;2.78;;
57985;SDS011;43788;42.670;23.330;2023-07-31T03:41:25;2.30;;;2.20;;
57985;SDS011;43788;42.670;23.330;2023-07-31T03:43:51;2.17;;;1.98;;
57985;SDS011;43788;42.670;23.330;2023-07-31T03:46:17;2.80;;;2.60;;
57985;SDS011;43788;42.670;23.330;2023-07-31T03:48:43;2.45;;;2.28;;
57985;SDS011;43788;42.670;23.330;2023-07-31T03:51:08;2.58;;;2.42;;
57985;SDS011;43788;42.670;23.330;2023-07-31T03:53:33;2.67;;;2.47;;
57985;SDS011;43788;42.670;23.330;2023-07-31T03:55:59;2.53;;;2.42;;
57985;SDS011;43788;42.670;23.330;2023-07-31T03:58:24;2.63;;;2.42;;
57985;SDS011;43788;42.670;23.330;2023-07-31T04:00:50;2.70;;;2.50;;
57985;SDS011;43788;42.670;23.330;2023-07-31T04:03:15;2.60;;;2.42;;
57985;SDS011;43788;42.670;23.330;2023-07-31T04:05:41;2.78;;;2.58;;
57985;SDS011;43788;42.670;23.330;2023-07-31T04:08:06;2.70;;;2.50;;
57985;SDS011;43788;42.670;23.330;2023-07-31T04:10:31;2.35;;;2.22;;
57985;SDS011;43788;42.670;23.330;2023-07-31T04:12:58;2.50;;;2.40;;
57985;SDS011;43788;42.670;23.330;2023-07-31T04:15:24;2.58;;;2.40;;
57985;SDS011;43788;42.670;23.330;2023-07-31T04:17:50;2.95;;;2.75;;
57985;SDS011;43788;42.670;23.330;2023-07-31T04:20:15;2.72;;;2.53;;
57985;SDS011;43788;42.670;23.330;2023-07-31T04:22:41;2.60;;;2.40;;
57985;SDS011;43788;42.670;23.330;2023-07-31T04:25:06;2.75;;;2.55;;
57985;SDS011;43788;42.670;23.330;2023-07-31T04:27:32;2.70;;;2.50;;
57985;SDS011;43788;42.670;23.330;2023-07-31T04:29:57;2.80;;;2.60;;
57985;SDS011;43788;42.670;23.330;2023-07-31T04:32:23;2.65;;;2.47;;
57985;SDS011;43788;42.670;23.330;2023-07-31T04:34:48;2.90;;;2.70;;
57985;SDS011;43788;42.670;23.330;2023-07-31T04:37:14;2.40;;;2.22;;
57985;SDS011;43788;42.670;23.330;2023-07-31T04:39:39;2.83;;;2.63;;
57985;SDS011;43788;42.670;23.330;2023-07-31T04:42:05;2.65;;;2.47;;
57985;SDS011;43788;42.670;23.330;2023-07-31T04:44:30;3.30;;;3.00;;
57985;SDS011;43788;42.670;23.330;2023-07-31T04:47:07;3.00;;;2.80;;
57985;SDS011;43788;42.670;23.330;2023-07-31T04:49:32;2.85;;;2.65;;
57985;SDS011;43788;42.670;23.330;2023-07-31T04:51:58;2.75;;;2.55;;
57985;SDS011;43788;42.670;23.330;2023-07-31T04:54:23;2.40;;;2.30;;
57985;SDS011;43788;42.670;23.330;2023-07-31T04:56:49;2.90;;;2.70;;
57985;SDS011;43788;42.670;23.330;2023-07-31T04:59:14;2.67;;;2.47;;
57985;SDS011;43788;42.670;23.330;2023-07-31T05:01:40;2.17;;;2.08;;
57985;SDS011;43788;42.670;23.330;2023-07-31T05:04:05;2.75;;;2.55;;
57985;SDS011;43788;42.670;23.330;2023-07-31T05:06:30;2.78;;;2.58;;
57985;SDS011;43788;42.670;23.330;2023-07-31T05:08:57;2.33;;;2.22;;
57985;SDS011;43788;42.670;23.330;2023-07-31T05:11:23;2.30;;;2.20;;
57985;SDS011;43788;42.670;23.330;2023-07-31T05:13:54;2.65;;;2.45;;
57985;SDS011;43788;42.670;23.330;2023-07-31T05:16:20;2.50;;;2.30;;
57985;SDS011;43788;42.670;23.330;2023-07-31T05:18:47;2.50;;;2.30;;
57985;SDS011;43788;42.670;23.330;2023-07-31T05:21:12;2.03;;;1.83;;
57985;SDS011;43788;42.670;23.330;2023-07-31T05:23:38;2.20;;;2.10;;
57985;SDS011;43788;42.670;23.330;2023-07-31T05:26:04;2.03;;;1.92;;
57985;SDS011;43788;42.670;23.330;2023-07-31T05:28:31;1.70;;;1.60;;
57985;SDS011;43788;42.670;23.330;2023-07-31T05:31:01;1.75;;;1.65;;
57985;SDS011;43788;42.670;23.330;2023-07-31T05:33:28;1.67;;;1.57;;
57985;SDS011;43788;42.670;23.330;2023-07-31T05:35:54;1.45;;;1.35;;
57985;SDS011;43788;42.670;23.330;2023-07-31T05:38:21;1.75;;;1.65;;
57985;SDS011;43788;42.670;23.330;2023-07-31T05:40:47;2.95;;;2.72;;
57985;SDS011;43788;42.670;23.330;2023-07-31T05:43:14;1.52;;;1.42;;
57985;SDS011;43788;42.670;23.330;2023-07-31T05:45:39;3.78;;;3.47;;
57985;SDS011;43788;42.670;23.330;2023-07-31T05:48:05;1.85;;;1.75;;
57985;SDS011;43788;42.670;23.330;2023-07-31T05:50:31;1.45;;;1.35;;
57985;SDS011;43788;42.670;23.330;2023-07-31T05:52:57;1.00;;;1.00;;
57985;SDS011;43788;42.670;23.330;2023-07-31T05:55:22;1.08;;;1.08;;
57985;SDS011;43788;42.670;23.330;2023-07-31T05:58:02;1.02;;;1.02;;
57985;SDS011;43788;42.670;23.330;2023-07-31T06:00:27;1.02;;;1.02;;
57985;SDS011;43788;42.670;23.330;2023-07-31T06:02:53;0.85;;;0.85;;
57985;SDS011;43788;42.670;23.330;2023-07-31T06:05:18;0.90;;;0.90;;
57985;SDS011;43788;42.670;23.330;2023-07-31T06:07:46;1.02;;;1.02;;
57985;SDS011;43788;42.670;23.330;2023-07-31T06:10:12;0.93;;;0.90;;
57985;SDS011;43788;42.670;23.330;2023-07-31T06:12:38;0.88;;;0.88;;
57985;SDS011;43788;42.670;23.330;2023-07-31T06:15:04;2.03;;;0.80;;
57985;SDS011;43788;42.670;23.330;2023-07-31T06:17:30;0.60;;;0.60;;
57985;SDS011;43788;42.670;23.330;2023-07-31T06:19:56;0.55;;;0.55;;
57985;SDS011;43788;42.670;23.330;2023-07-31T06:22:22;0.60;;;0.60;;
57985;SDS011;43788;42.670;23.330;2023-07-31T06:24:48;0.60;;;0.60;;
57985;SDS011;43788;42.670;23.330;2023-07-31T06:27:15;0.65;;;0.65;;
57985;SDS011;43788;42.670;23.330;2023-07-31T06:29:41;0.32;;;0.32;;
57985;SDS011;43788;42.670;23.330;2023-07-31T06:32:07;0.60;;;0.60;;
57985;SDS011;43788;42.670;23.330;2023-07-31T06:34:40;0.65;;;0.65;;
57985;SDS011;43788;42.670;23.330;2023-07-31T06:37:05;0.63;;;0.63;;
57985;SDS011;43788;42.670;23.330;2023-07-31T06:39:31;0.68;;;0.50;;
57985;SDS011;43788;42.670;23.330;2023-07-31T06:41:56;0.60;;;0.60;;
57985;SDS011;43788;42.670;23.330;2023-07-31T06:44:22;0.63;;;0.63;;
57985;SDS011;43788;42.670;23.330;2023-07-31T06:46:47;0.65;;;0.65;;
57985;SDS011;43788;42.670;23.330;2023-07-31T06:49:18;1.13;;;0.70;;
57985;SDS011;43788;42.670;23.330;2023-07-31T06:51:44;0.30;;;0.30;;
57985;SDS011;43788;42.670;23.330;2023-07-31T06:54:09;0.65;;;0.50;;
57985;SDS011;43788;42.670;23.330;2023-07-31T06:56:35;0.60;;;0.60;;
57985;SDS011;43788;42.670;23.330;2023-07-31T06:59:00;0.60;;;0.60;;
57985;SDS011;43788;42.670;23.330;2023-07-31T07:01:26;0.40;;;0.40;;
57985;SDS011;43788;42.670;23.330;2023-07-31T07:03:53;0.50;;;0.50;;
57985;SDS011;43788;42.670;23.330;2023-07-31T07:06:19;0.52;;;0.52;;
57985;SDS011;43788;42.670;23.330;2023-07-31T07:08:45;0.45;;;0.45;;
57985;SDS011;43788;42.670;23.330;2023-07-31T07:11:13;0.50;;;0.50;;
57985;SDS011;43788;42.670;23.330;2023-07-31T07:13:38;0.40;;;0.40;;
57985;SDS011;43788;42.670;23.330;2023-07-31T07:16:05;0.70;;;0.70;;
57985;SDS011;43788;42.670;23.330;2023-07-31T07:18:30;0.57;;;0.55;;
57985;SDS011;43788;42.670;23.330;2023-07-31T07:20:56;0.38;;;0.38;;
57985;SDS011;43788;42.670;23.330;2023-07-31T07:25:52;0.30;;;0.30;;
57985;SDS011;43788;42.670;23.330;2023-07-31T07:28:18;0.40;;;0.40;;
57985;SDS011;43788;42.670;23.330;2023-07-31T07:30:43;0.40;;;0.40;;
57985;SDS011;43788;42.670;23.330;2023-07-31T07:33:08;0.50;;;0.50;;
57985;SDS011;43788;42.670;23.330;2023-07-31T07:35:34;3.15;;;0.50;;
57985;SDS011;43788;42.670;23.330;2023-07-31T07:38:02;0.52;;;0.52;;
57985;SDS011;43788;42.670;23.330;2023-07-31T07:40:28;0.50;;;0.50;;
57985;SDS011;43788;42.670;23.330;2023-07-31T07:42:54;0.55;;;0.55;;
57985;SDS011;43788;42.670;23.330;2023-07-31T07:45:19;0.65;;;0.65;;
57985;SDS011;43788;42.670;23.330;2023-07-31T07:47:45;1.75;;;0.60;;
57985;SDS011;43788;42.670;23.330;2023-07-31T07:50:11;0.50;;;0.50;;
57985;SDS011;43788;42.670;23.330;2023-07-31T07:52:36;0.50;;;0.47;;
57985;SDS011;43788;42.670;23.330;2023-07-31T07:55:01;0.40;;;0.40;;
57985;SDS011;43788;42.670;23.330;2023-07-31T07:57:28;0.50;;;0.50;;
57985;SDS011;43788;42.670;23.330;2023-07-31T07:59:55;0.45;;;0.40;;
57985;SDS011;43788;42.670;23.330;2023-07-31T08:02:22;1.25;;;0.77;;
57985;SDS011;43788;42.670;23.330;2023-07-31T08:04:47;0.47;;;0.47;;
57985;SDS011;43788;42.670;23.330;2023-07-31T08:07:13;0.35;;;0.35;;
57985;SDS011;43788;42.670;23.330;2023-07-31T08:09:39;0.47;;;0.47;;
57985;SDS011;43788;42.670;23.330;2023-07-31T08:12:05;0.40;;;0.40;;
57985;SDS011;43788;42.670;23.330;2023-07-31T08:14:32;0.80;;;0.45;;
57985;SDS011;43788;42.670;23.330;2023-07-31T08:16:58;0.40;;;0.40;;
57985;SDS011;43788;42.670;23.330;2023-07-31T08:19:24;0.50;;;0.50;;
57985;SDS011;43788;42.670;23.330;2023-07-31T08:21:51;0.40;;;0.40;;
57985;SDS011;43788;42.670;23.330;2023-07-31T08:24:16;0.47;;;0.40;;
57985;SDS011;43788;42.670;23.330;2023-07-31T08:26:42;2.83;;;0.77;;
57985;SDS011;43788;42.670;23.330;2023-07-31T08:29:08;0.45;;;0.45;;
57985;SDS011;43788;42.670;23.330;2023-07-31T08:31:34;0.40;;;0.40;;
57985;SDS011;43788;42.670;23.330;2023-07-31T08:33:59;0.40;;;0.40;;
57985;SDS011;43788;42.670;23.330;2023-07-31T08:36:25;0.38;;;0.38;;
57985;SDS011;43788;42.670;23.330;2023-07-31T08:38:51;0.60;;;0.60;;
57985;SDS011;43788;42.670;23.330;2023-07-31T08:41:17;0.60;;;0.40;;
57985;SDS011;43788;42.670;23.330;2023-07-31T08:43:43;0.63;;;0.60;;
57985;SDS011;43788;42.670;23.330;2023-07-31T08:46:12;0.30;;;0.30;;
57985;SDS011;43788;42.670;23.330;2023-07-31T08:48:44;0.50;;;0.50;;
57985;SDS011;43788;42.670;23.330;2023-07-31T08:51:10;0.40;;;0.40;;
57985;SDS011;43788;42.670;23.330;2023-07-31T08:53:36;0.40;;;0.40;;
57985;SDS011;43788;42.670;23.330;2023-07-31T08:56:01;0.40;;;0.40;;
57985;SDS011;43788;42.670;23.330;2023-07-31T08:58:28;0.55;;;0.50;;
57985;SDS011;43788;42.670;23.330;2023-07-31T09:00:56;0.40;;;0.40;;
57985;SDS011;43788;42.670;23.330;2023-07-31T09:03:23;0.50;;;0.50;;
57985;SDS011;43788;42.670;23.330;2023-07-31T09:05:50;0.40;;;0.40;;
57985;SDS011;43788;42.670;23.330;2023-07-31T09:08:18;0.32;;;0.32;;
57985;SDS011;43788;42.670;23.330;2023-07-31T09:10:45;0.32;;;0.32;;
57985;SDS011;43788;42.670;23.330;2023-07-31T09:13:14;0.40;;;0.40;;
57985;SDS011;43788;42.670;23.330;2023-07-31T09:15:43;0.50;;;0.50;;
57985;SDS011;43788;42.670;23.330;2023-07-31T09:18:09;0.47;;;0.47;;
57985;SDS011;43788;42.670;23.330;2023-07-31T09:20:35;0.50;;;0.50;;
57985;SDS011;43788;42.670;23.330;2023-07-31T09:23:07;0.47;;;0.47;;
57985;SDS011;43788;42.670;23.330;2023-07-31T09:25:34;0.40;;;0.40;;
57985;SDS011;43788;42.670;23.330;2023-07-31T09:28:00;0.40;;;0.40;;
57985;SDS011;43788;42.670;23.330;2023-07-31T09:30:27;0.50;;;0.50;;
57985;SDS011;43788;42.670;23.330;2023-07-31T09:33:05;0.40;;;0.40;;
57985;SDS011;43788;42.670;23.330;2023-07-31T09:35:35;0.35;;;0.35;;
57985;SDS011;43788;42.670;23.330;2023-07-31T09:38:04;0.40;;;0.40;;
57985;SDS011;43788;42.670;23.330;2023-07-31T09:40:35;0.30;;;0.30;;
57985;SDS011;43788;42.670;23.330;2023-07-31T09:43:03;0.50;;;0.50;;
57985;SDS011;43788;42.670;23.330;2023-07-31T09:45:34;0.82;;;0.50;;
57985;SDS011;43788;42.670;23.330;2023-07-31T09:48:03;0.55;;;0.47;;
57985;SDS011;43788;42.670;23.330;2023-07-31T09:53:05;0.35;;;0.30;;
57985;SDS011;43788;42.670;23.330;2023-07-31T09:55:31;0.60;;;0.50;;
57985;SDS011;43788;42.670;23.330;2023-07-31T09:57:59;0.75;;;0.43;;
57985;SDS011;43788;42.670;23.330;2023-07-31T10:00:30;0.38;;;0.38;;
57985;SDS011;43788;42.670;23.330;2023-07-31T10:02:58;0.30;;;0.30;;
57985;SDS011;43788;42.670;23.330;2023-07-31T10:05:24;0.45;;;0.45;;
57985;SDS011;43788;42.670;23.330;2023-07-31T10:07:55;0.30;;;0.30;;
57985;SDS011;43788;42.670;23.330;2023-07-31T10:10:22;0.30;;;0.30;;
57985;SDS011;43788;42.670;23.330;2023-07-31T10:12:49;0.40;;;0.40;;
57985;SDS011;43788;42.670;23.330;2023-07-31T10:15:15;0.40;;;0.30;;
57985;SDS011;43788;42.670;23.330;2023-07-31T10:17:41;1.65;;;0.50;;
57985;SDS011;43788;42.670;23.330;2023-07-31T10:20:07;0.40;;;0.40;;
57985;SDS011;43788;42.670;23.330;2023-07-31T10:22:34;0.30;;;0.30;;
57985;SDS011;43788;42.670;23.330;2023-07-31T10:24:59;0.28;;;0.28;;
57985;SDS011;43788;42.670;23.330;2023-07-31T10:27:25;0.30;;;0.30;;
57985;SDS011;43788;42.670;23.330;2023-07-31T10:29:52;0.40;;;0.40;;
57985;SDS011;43788;42.670;23.330;2023-07-31T10:32:21;0.40;;;0.40;;
57985;SDS011;43788;42.670;23.330;2023-07-31T10:34:48;0.20;;;0.20;;
57985;SDS011;43788;42.670;23.330;2023-07-31T10:37:21;0.20;;;0.20;;
57985;SDS011;43788;42.670;23.330;2023-07-31T10:39:59;0.35;;;0.35;;
57985;SDS011;43788;42.670;23.330;2023-07-31T10:42:36;0.30;;;0.30;;
57985;SDS011;43788;42.670;23.330;2023-07-31T10:45:05;0.40;;;0.40;;
57985;SDS011;43788;42.670;23.330;2023-07-31T10:47:38;0.20;;;0.20;;
57985;SDS011;43788;42.670;23.330;2023-07-31T10:50:18;0.40;;;0.40;;
57985;SDS011;43788;42.670;23.330;2023-07-31T10:52:48;0.37;;;0.30;;
57985;SDS011;43788;42.670;23.330;2023-07-31T10:55:41;0.30;;;0.30;;
57985;SDS011;43788;42.670;23.330;2023-07-31T10:58:09;0.20;;;0.20;;
57985;SDS011;43788;42.670;23.330;2023-07-31T11:00:41;0.30;;;0.30;;
57985;SDS011;43788;42.670;23.330;2023-07-31T11:03:12;0.30;;;0.30;;
57985;SDS011;43788;42.670;23.330;2023-07-31T11:05:45;0.38;;;0.30;;
57985;SDS011;43788;42.670;23.330;2023-07-31T11:08:21;0.25;;;0.25;;
57985;SDS011;43788;42.670;23.330;2023-07-31T11:11:06;0.28;;;0.28;;
57985;SDS011;43788;42.670;23.330;2023-07-31T11:13:42;0.20;;;0.20;;
57985;SDS011;43788;42.670;23.330;2023-07-31T11:16:10;0.17;;;0.17;;
57985;SDS011;43788;42.670;23.330;2023-07-31T11:18:38;0.38;;;0.38;;
57985;SDS011;43788;42.670;23.330;2023-07-31T11:21:07;0.32;;;0.32;;
57985;SDS011;43788;42.670;23.330;2023-07-31T11:23:33;0.50;;;0.30;;
57985;SDS011;43788;42.670;23.330;2023-07-31T11:25:59;0.40;;;0.40;;
57985;SDS011;43788;42.670;23.330;2023-07-31T11:28:25;0.20;;;0.20;;
57985;SDS011;43788;42.670;23.330;2023-07-31T11:30:50;0.55;;;0.30;;
57985;SDS011;43788;42.670;23.330;2023-07-31T11:33:16;0.20;;;0.20;;
57985;SDS011;43788;42.670;23.330;2023-07-31T11:35:46;0.28;;;0.28;;
57985;SDS011;43788;42.670;23.330;2023-07-31T11:38:32;0.60;;;0.40;;
57985;SDS011;43788;42.670;23.330;2023-07-31T11:41:02;0.22;;;0.22;;
57985;SDS011;43788;42.670;23.330;2023-07-31T11:43:32;0.25;;;0.25;;
57985;SDS011;43788;42.670;23.330;2023-07-31T11:46:02;0.40;;;0.40;;
57985;SDS011;43788;42.670;23.330;2023-07-31T11:48:33;0.30;;;0.30;;
57985;SDS011;43788;42.670;23.330;2023-07-31T11:51:05;0.20;;;0.20;;
57985;SDS011;43788;42.670;23.330;2023-07-31T11:53:44;0.30;;;0.30;;
57985;SDS011;43788;42.670;23.330;2023-07-31T11:56:14;0.63;;;0.40;;
57985;SDS011;43788;42.670;23.330;2023-07-31T11:58:41;0.25;;;0.25;;
57985;SDS011;43788;42.670;23.330;2023-07-31T12:01:08;1.25;;;0.38;;
57985;SDS011;43788;42.670;23.330;2023-07-31T12:03:34;1.02;;;0.50;;
57985;SDS011;43788;42.670;23.330;2023-07-31T12:06:00;0.30;;;0.30;;
57985;SDS011;43788;42.670;23.330;2023-07-31T12:08:26;0.40;;;0.40;;
57985;SDS011;43788;42.670;23.330;2023-07-31T12:10:52;0.40;;;0.40;;
57985;SDS011;43788;42.670;23.330;2023-07-31T12:13:24;0.50;;;0.50;;
57985;SDS011;43788;42.670;23.330;2023-07-31T12:15:54;0.30;;;0.30;;
57985;SDS011;43788;42.670;23.330;2023-07-31T12:18:22;0.60;;;0.60;;
57985;SDS011;43788;42.670;23.330;2023-07-31T12:20:53;0.50;;;0.50;;
57985;SDS011;43788;42.670;23.330;2023-07-31T12:23:22;0.50;;;0.50;;
57985;SDS011;43788;42.670;23.330;2023-07-31T12:26:09;0.60;;;0.57;;
57985;SDS011;43788;42.670;23.330;2023-07-31T12:28:36;0.82;;;0.82;;
57985;SDS011;43788;42.670;23.330;2023-07-31T12:31:03;0.50;;;0.50;;
57985;SDS011;43788;42.670;23.330;2023-07-31T12:33:35;1.50;;;0.88;;
57985;SDS011;43788;42.670;23.330;2023-07-31T12:36:04;0.50;;;0.50;;
57985;SDS011;43788;42.670;23.330;2023-07-31T12:38:33;0.50;;;0.50;;
57985;SDS011;43788;42.670;23.330;2023-07-31T12:40:58;0.50;;;0.50;;
57985;SDS011;43788;42.670;23.330;2023-07-31T12:43:24;0.55;;;0.55;;
57985;SDS011;43788;42.670;23.330;2023-07-31T12:45:55;0.50;;;0.50;;
57985;SDS011;43788;42.670;23.330;2023-07-31T12:48:21;2.20;;;0.75;;
57985;SDS011;43788;42.670;23.330;2023-07-31T12:50:47;0.50;;;0.50;;
57985;SDS011;43788;42.670;23.330;2023-07-31T12:53:14;0.82;;;0.50;;
57985;SDS011;43788;42.670;23.330;2023-07-31T12:55:40;0.50;;;0.50;;
57985;SDS011;43788;42.670;23.330;2023-07-31T12:58:06;0.50;;;0.50;;
57985;SDS011;43788;42.670;23.330;2023-07-31T13:00:31;0.60;;;0.60;;
57985;SDS011;43788;42.670;23.330;2023-07-31T13:03:03;0.70;;;0.70;;
57985;SDS011;43788;42.670;23.330;2023-07-31T13:05:29;0.70;;;0.70;;
57985;SDS011;43788;42.670;23.330;2023-07-31T13:07:55;0.70;;;0.70;;
57985;SDS011;43788;42.670;23.330;2023-07-31T13:10:21;0.65;;;0.65;;
57985;SDS011;43788;42.670;23.330;2023-07-31T13:12:47;0.77;;;0.77;;
57985;SDS011;43788;42.670;23.330;2023-07-31T13:15:13;0.60;;;0.60;;
57985;SDS011;43788;42.670;23.330;2023-07-31T13:17:39;0.80;;;0.80;;
57985;SDS011;43788;42.670;23.330;2023-07-31T13:20:05;1.10;;;0.57;;
57985;SDS011;43788;42.670;23.330;2023-07-31T13:22:31;0.60;;;0.60;;
57985;SDS011;43788;42.670;23.330;2023-07-31T13:24:56;0.60;;;0.60;;
57985;SDS011;43788;42.670;23.330;2023-07-31T13:27:22;0.50;;;0.45;;
57985;SDS011;43788;42.670;23.330;2023-07-31T13:29:48;0.60;;;0.60;;
57985;SDS011;43788;42.670;23.330;2023-07-31T13:32:15;0.55;;;0.55;;
57985;SDS011;43788;42.670;23.330;2023-07-31T13:34:45;0.80;;;0.50;;
57985;SDS011;43788;42.670;23.330;2023-07-31T13:37:11;0.43;;;0.43;;
57985;SDS011;43788;42.670;23.330;2023-07-31T13:39:37;0.73;;;0.73;;
57985;SDS011;43788;42.670;23.330;2023-07-31T13:42:02;0.65;;;0.60;;
57985;SDS011;43788;42.670;23.330;2023-07-31T13:44:31;0.52;;;0.52;;
57985;SDS011;43788;42.670;23.330;2023-07-31T13:46:57;0.50;;;0.50;;
57985;SDS011;43788;42.670;23.330;2023-07-31T13:49:22;0.40;;;0.40;;
57985;SDS011;43788;42.670;23.330;2023-07-31T13:51:47;0.50;;;0.50;;
57985;SDS011;43788;42.670;23.330;2023-07-31T13:54:13;0.40;;;0.40;;
57985;SDS011;43788;42.670;23.330;2023-07-31T13:56:40;0.57;;;0.57;;
57985;SDS011;43788;42.670;23.330;2023-07-31T13:59:06;0.40;;;0.40;;
57985;SDS011;43788;42.670;23.330;2023-07-31T14:01:31;0.55;;;0.55;;
57985;SDS011;43788;42.670;23.330;2023-07-31T14:03:58;0.40;;;0.40;;
57985;SDS011;43788;42.670;23.330;2023-07-31T14:06:24;0.40;;;0.40;;
57985;SDS011;43788;42.670;23.330;2023-07-31T14:08:49;0.40;;;0.40;;
57985;SDS011;43788;42.670;23.330;2023-07-31T14:11:15;0.47;;;0.47;;
57985;SDS011;43788;42.670;23.330;2023-07-31T14:13:40;0.50;;;0.50;;
57985;SDS011;43788;42.670;23.330;2023-07-31T14:16:06;0.40;;;0.40;;
57985;SDS011;43788;42.670;23.330;2023-07-31T14:18:32;0.40;;;0.40;;
57985;SDS011;43788;42.670;23.330;2023-07-31T14:20:57;0.85;;;0.50;;
57985;SDS011;43788;42.670;23.330;2023-07-31T14:23:24;0.50;;;0.50;;
57985;SDS011;43788;42.670;23.330;2023-07-31T14:25:49;0.50;;;0.50;;
57985;SDS011;43788;42.670;23.330;2023-07-31T14:28:16;0.40;;;0.40;;
57985;SDS011;43788;42.670;23.330;2023-07-31T14:30:41;0.40;;;0.40;;
57985;SDS011;43788;42.670;23.330;2023-07-31T14:33:07;0.50;;;0.50;;
57985;SDS011;43788;42.670;23.330;2023-07-31T14:35:33;0.40;;;0.40;;
57985;SDS011;43788;42.670;23.330;2023-07-31T14:37:59;0.60;;;0.60;;
57985;SDS011;43788;42.670;23.330;2023-07-31T14:40:25;0.63;;;0.50;;
57985;SDS011;43788;42.670;23.330;2023-07-31T14:42:51;0.57;;;0.57;;
57985;SDS011;43788;42.670;23.330;2023-07-31T14:45:17;0.80;;;0.40;;